sensor_id;sensor_type;location;lat;lon;timestamp;temperature;humidity
19803;DHT22;66074;50.764;6.090;2024-03-02T00:00:10;10.50;90.30
19803;DHT22;66074;50.764;6.090;2024-03-02T00:02:43;10.50;90.30
19803;DHT22;66074;50.764;6.090;2024-03-02T00:05:11;10.50;90.30
19803;DHT22;66074;50.764;6.090;2024-03-02T00:07:38;10.50;90.40
19803;DHT22;66074;50.764;6.090;2024-03-02T00:10:08;10.50;90.40
19803;DHT22;66074;50.764;6.090;2024-03-02T00:12:36;10.50;90.40
19803;DHT22;66074;50.764;6.090;2024-03-02T00:15:05;10.50;90.40
19803;DHT22;66074;50.764;6.090;2024-03-02T00:17:32;10.60;90.40
19803;DHT22;66074;50.764;6.090;2024-03-02T00:19:57;10.60;90.40
19803;DHT22;66074;50.764;6.090;2024-03-02T00:22:23;10.60;90.50
19803;DHT22;66074;50.764;6.090;2024-03-02T00:24:48;10.60;90.50
19803;DHT22;66074;50.764;6.090;2024-03-02T00:27:15;10.70;90.50
19803;DHT22;66074;50.764;6.090;2024-03-02T00:29:41;10.70;90.50
19803;DHT22;66074;50.764;6.090;2024-03-02T00:32:16;10.70;90.50
19803;DHT22;66074;50.764;6.090;2024-03-02T00:34:42;10.70;90.50
19803;DHT22;66074;50.764;6.090;2024-03-02T00:37:08;10.70;90.50
19803;DHT22;66074;50.764;6.090;2024-03-02T00:39:34;10.80;90.50
19803;DHT22;66074;50.764;6.090;2024-03-02T00:41:59;10.80;90.40
19803;DHT22;66074;50.764;6.090;2024-03-02T00:44:25;10.80;90.50
19803;DHT22;66074;50.764;6.090;2024-03-02T00:46:59;10.80;90.80
19803;DHT22;66074;50.764;6.090;2024-03-02T00:49:25;10.80;90.50
19803;DHT22;66074;50.764;6.090;2024-03-02T00:51:53;10.80;90.40
19803;DHT22;66074;50.764;6.090;2024-03-02T00:54:20;10.80;90.40
19803;DHT22;66074;50.764;6.090;2024-03-02T00:56:47;10.70;90.40
19803;DHT22;66074;50.764;6.090;2024-03-02T00:59:13;10.80;90.40
19803;DHT22;66074;50.764;6.090;2024-03-02T01:01:39;10.80;90.40
19803;DHT22;66074;50.764;6.090;2024-03-02T01:04:04;10.80;90.40
19803;DHT22;66074;50.764;6.090;2024-03-02T01:06:30;10.90;90.50
19803;DHT22;66074;50.764;6.090;2024-03-02T01:08:56;10.80;90.40
19803;DHT22;66074;50.764;6.090;2024-03-02T01:11:22;10.90;90.40
19803;DHT22;66074;50.764;6.090;2024-03-02T01:13:47;10.90;90.50
19803;DHT22;66074;50.764;6.090;2024-03-02T01:16:13;10.90;90.60
19803;DHT22;66074;50.764;6.090;2024-03-02T01:18:41;10.90;90.50
19803;DHT22;66074;50.764;6.090;2024-03-02T01:21:07;10.90;90.50
19803;DHT22;66074;50.764;6.090;2024-03-02T01:23:32;10.90;90.50
19803;DHT22;66074;50.764;6.090;2024-03-02T01:25:58;10.90;90.40
19803;DHT22;66074;50.764;6.090;2024-03-02T01:28:23;11.00;90.50
19803;DHT22;66074;50.764;6.090;2024-03-02T01:30:49;10.90;90.40
19803;DHT22;66074;50.764;6.090;2024-03-02T01:33:19;10.90;90.40
19803;DHT22;66074;50.764;6.090;2024-03-02T01:35:45;10.90;90.50
19803;DHT22;66074;50.764;6.090;2024-03-02T01:38:11;10.90;90.50
19803;DHT22;66074;50.764;6.090;2024-03-02T01:40:37;10.90;90.50
19803;DHT22;66074;50.764;6.090;2024-03-02T01:43:07;10.90;90.50
19803;DHT22;66074;50.764;6.090;2024-03-02T01:45:33;10.90;90.80
19803;DHT22;66074;50.764;6.090;2024-03-02T01:47:59;10.90;90.50
19803;DHT22;66074;50.764;6.090;2024-03-02T01:50:29;11.00;90.50
19803;DHT22;66074;50.764;6.090;2024-03-02T01:52:58;10.90;90.60
19803;DHT22;66074;50.764;6.090;2024-03-02T01:55:24;10.90;90.80
19803;DHT22;66074;50.764;6.090;2024-03-02T01:57:50;10.80;90.70
19803;DHT22;66074;50.764;6.090;2024-03-02T02:00:22;10.80;90.80
19803;DHT22;66074;50.764;6.090;2024-03-02T02:02:51;10.80;91.00
19803;DHT22;66074;50.764;6.090;2024-03-02T02:05:17;10.80;91.00
19803;DHT22;66074;50.764;6.090;2024-03-02T02:07:42;10.70;91.40
19803;DHT22;66074;50.764;6.090;2024-03-02T02:10:09;10.70;91.70
19803;DHT22;66074;50.764;6.090;2024-03-02T02:12:35;10.70;91.70
19803;DHT22;66074;50.764;6.090;2024-03-02T02:15:00;10.60;92.50
19803;DHT22;66074;50.764;6.090;2024-03-02T02:17:26;10.40;92.60
19803;DHT22;66074;50.764;6.090;2024-03-02T02:19:52;10.40;92.10
19803;DHT22;66074;50.764;6.090;2024-03-02T02:22:17;10.40;91.80
19803;DHT22;66074;50.764;6.090;2024-03-02T02:24:43;10.40;92.10
19803;DHT22;66074;50.764;6.090;2024-03-02T02:27:09;10.40;92.30
19803;DHT22;66074;50.764;6.090;2024-03-02T02:29:35;10.40;92.20
19803;DHT22;66074;50.764;6.090;2024-03-02T02:32:01;10.30;92.20
19803;DHT22;66074;50.764;6.090;2024-03-02T02:34:27;10.30;92.00
19803;DHT22;66074;50.764;6.090;2024-03-02T02:36:52;10.30;92.50
19803;DHT22;66074;50.764;6.090;2024-03-02T02:39:20;10.30;92.40
19803;DHT22;66074;50.764;6.090;2024-03-02T02:41:47;10.20;92.30
19803;DHT22;66074;50.764;6.090;2024-03-02T02:44:13;10.20;92.80
19803;DHT22;66074;50.764;6.090;2024-03-02T02:46:39;10.20;92.10
19803;DHT22;66074;50.764;6.090;2024-03-02T02:49:05;10.20;92.60
19803;DHT22;66074;50.764;6.090;2024-03-02T02:51:31;10.20;92.40
19803;DHT22;66074;50.764;6.090;2024-03-02T02:53:56;10.10;93.30
19803;DHT22;66074;50.764;6.090;2024-03-02T02:56:22;10.20;92.50
19803;DHT22;66074;50.764;6.090;2024-03-02T02:58:48;10.20;92.80
19803;DHT22;66074;50.764;6.090;2024-03-02T03:01:16;10.20;92.90
19803;DHT22;66074;50.764;6.090;2024-03-02T03:03:44;10.10;93.20
19803;DHT22;66074;50.764;6.090;2024-03-02T03:06:11;10.10;93.70
19803;DHT22;66074;50.764;6.090;2024-03-02T03:08:36;10.10;93.50
19803;DHT22;66074;50.764;6.090;2024-03-02T03:11:03;10.10;93.60
19803;DHT22;66074;50.764;6.090;2024-03-02T03:13:29;10.10;93.60
19803;DHT22;66074;50.764;6.090;2024-03-02T03:15:54;10.10;93.90
19803;DHT22;66074;50.764;6.090;2024-03-02T03:18:20;10.10;93.70
19803;DHT22;66074;50.764;6.090;2024-03-02T03:20:46;10.20;94.40
19803;DHT22;66074;50.764;6.090;2024-03-02T03:23:11;10.10;94.40
19803;DHT22;66074;50.764;6.090;2024-03-02T03:25:41;10.00;93.60
19803;DHT22;66074;50.764;6.090;2024-03-02T03:28:07;10.00;94.10
19803;DHT22;66074;50.764;6.090;2024-03-02T03:30:38;10.00;94.70
19803;DHT22;66074;50.764;6.090;2024-03-02T03:33:04;10.00;94.30
19803;DHT22;66074;50.764;6.090;2024-03-02T03:35:31;10.00;94.70
19803;DHT22;66074;50.764;6.090;2024-03-02T03:37:57;10.00;93.90
19803;DHT22;66074;50.764;6.090;2024-03-02T03:40:23;10.00;94.70
19803;DHT22;66074;50.764;6.090;2024-03-02T03:42:48;10.00;94.10
19803;DHT22;66074;50.764;6.090;2024-03-02T03:45:15;10.10;94.50
19803;DHT22;66074;50.764;6.090;2024-03-02T03:47:41;10.00;94.10
19803;DHT22;66074;50.764;6.090;2024-03-02T03:50:07;10.00;94.40
19803;DHT22;66074;50.764;6.090;2024-03-02T03:52:33;10.00;94.30
19803;DHT22;66074;50.764;6.090;2024-03-02T03:54:59;10.00;94.30
19803;DHT22;66074;50.764;6.090;2024-03-02T03:57:25;10.00;94.50
19803;DHT22;66074;50.764;6.090;2024-03-02T03:59:51;10.00;94.70
19803;DHT22;66074;50.764;6.090;2024-03-02T04:02:17;10.00;94.60
19803;DHT22;66074;50.764;6.090;2024-03-02T04:04:42;10.00;94.80
19803;DHT22;66074;50.764;6.090;2024-03-02T04:07:09;10.00;94.40
19803;DHT22;66074;50.764;6.090;2024-03-02T04:09:34;10.00;94.60
19803;DHT22;66074;50.764;6.090;2024-03-02T04:12:00;10.10;94.50
19803;DHT22;66074;50.764;6.090;2024-03-02T04:14:25;10.00;94.00
19803;DHT22;66074;50.764;6.090;2024-03-02T04:16:51;10.10;94.00
19803;DHT22;66074;50.764;6.090;2024-03-02T04:19:17;10.00;94.00
19803;DHT22;66074;50.764;6.090;2024-03-02T04:21:42;10.00;93.90
19803;DHT22;66074;50.764;6.090;2024-03-02T04:24:08;10.10;94.10
19803;DHT22;66074;50.764;6.090;2024-03-02T04:26:33;10.10;94.20
19803;DHT22;66074;50.764;6.090;2024-03-02T04:28:59;10.10;93.70
19803;DHT22;66074;50.764;6.090;2024-03-02T04:31:24;10.10;93.90
19803;DHT22;66074;50.764;6.090;2024-03-02T04:33:50;10.10;93.50
19803;DHT22;66074;50.764;6.090;2024-03-02T04:36:15;10.20;93.60
19803;DHT22;66074;50.764;6.090;2024-03-02T04:38:41;10.10;94.00
19803;DHT22;66074;50.764;6.090;2024-03-02T04:41:07;10.10;93.70
19803;DHT22;66074;50.764;6.090;2024-03-02T04:43:34;10.10;93.40
19803;DHT22;66074;50.764;6.090;2024-03-02T04:46:00;10.10;93.30
19803;DHT22;66074;50.764;6.090;2024-03-02T04:48:25;10.10;93.30
19803;DHT22;66074;50.764;6.090;2024-03-02T04:50:51;10.10;93.10
19803;DHT22;66074;50.764;6.090;2024-03-02T04:53:17;10.10;93.10
19803;DHT22;66074;50.764;6.090;2024-03-02T04:55:42;10.10;93.00
19803;DHT22;66074;50.764;6.090;2024-03-02T04:58:08;10.10;93.00
19803;DHT22;66074;50.764;6.090;2024-03-02T05:00:34;10.10;93.10
19803;DHT22;66074;50.764;6.090;2024-03-02T05:03:00;10.00;92.90
19803;DHT22;66074;50.764;6.090;2024-03-02T05:05:26;10.00;92.80
19803;DHT22;66074;50.764;6.090;2024-03-02T05:07:52;10.10;92.90
19803;DHT22;66074;50.764;6.090;2024-03-02T05:10:18;10.10;93.00
19803;DHT22;66074;50.764;6.090;2024-03-02T05:12:43;10.10;93.10
19803;DHT22;66074;50.764;6.090;2024-03-02T05:15:09;10.00;93.10
19803;DHT22;66074;50.764;6.090;2024-03-02T05:17:36;10.10;93.10
19803;DHT22;66074;50.764;6.090;2024-03-02T05:20:03;10.00;92.90
19803;DHT22;66074;50.764;6.090;2024-03-02T05:22:29;10.10;93.10
19803;DHT22;66074;50.764;6.090;2024-03-02T05:24:55;10.10;92.90
19803;DHT22;66074;50.764;6.090;2024-03-02T05:27:20;10.10;92.90
19803;DHT22;66074;50.764;6.090;2024-03-02T05:29:46;10.10;93.00
19803;DHT22;66074;50.764;6.090;2024-03-02T05:32:12;10.10;92.90
19803;DHT22;66074;50.764;6.090;2024-03-02T05:34:38;10.10;92.90
19803;DHT22;66074;50.764;6.090;2024-03-02T05:37:03;10.10;92.90
19803;DHT22;66074;50.764;6.090;2024-03-02T05:39:29;10.10;92.80
19803;DHT22;66074;50.764;6.090;2024-03-02T05:41:54;10.10;92.90
19803;DHT22;66074;50.764;6.090;2024-03-02T05:44:20;10.10;92.80
19803;DHT22;66074;50.764;6.090;2024-03-02T05:46:46;10.10;92.80
19803;DHT22;66074;50.764;6.090;2024-03-02T05:49:11;10.10;92.70
19803;DHT22;66074;50.764;6.090;2024-03-02T05:51:38;10.10;92.70
19803;DHT22;66074;50.764;6.090;2024-03-02T05:54:04;10.10;93.00
19803;DHT22;66074;50.764;6.090;2024-03-02T05:56:29;10.00;92.70
19803;DHT22;66074;50.764;6.090;2024-03-02T05:58:55;10.00;92.70
19803;DHT22;66074;50.764;6.090;2024-03-02T06:01:20;10.00;92.70
19803;DHT22;66074;50.764;6.090;2024-03-02T06:03:54;10.00;92.70
19803;DHT22;66074;50.764;6.090;2024-03-02T06:06:20;10.00;92.70
19803;DHT22;66074;50.764;6.090;2024-03-02T06:08:46;10.00;93.10
19803;DHT22;66074;50.764;6.090;2024-03-02T06:11:11;10.00;92.80
19803;DHT22;66074;50.764;6.090;2024-03-02T06:13:37;10.00;92.90
19803;DHT22;66074;50.764;6.090;2024-03-02T06:16:03;10.00;92.90
19803;DHT22;66074;50.764;6.090;2024-03-02T06:18:28;10.00;92.80
19803;DHT22;66074;50.764;6.090;2024-03-02T06:20:54;10.00;92.80
19803;DHT22;66074;50.764;6.090;2024-03-02T06:23:19;10.00;92.80
19803;DHT22;66074;50.764;6.090;2024-03-02T06:25:45;10.00;92.80
19803;DHT22;66074;50.764;6.090;2024-03-02T06:28:10;10.00;92.90
19803;DHT22;66074;50.764;6.090;2024-03-02T06:30:36;10.00;92.80
19803;DHT22;66074;50.764;6.090;2024-03-02T06:33:02;10.00;92.80
19803;DHT22;66074;50.764;6.090;2024-03-02T06:35:29;10.00;92.70
19803;DHT22;66074;50.764;6.090;2024-03-02T06:37:55;10.00;92.70
19803;DHT22;66074;50.764;6.090;2024-03-02T06:40:20;10.00;92.70
19803;DHT22;66074;50.764;6.090;2024-03-02T06:42:47;10.00;92.60
19803;DHT22;66074;50.764;6.090;2024-03-02T06:45:12;10.00;92.70
19803;DHT22;66074;50.764;6.090;2024-03-02T06:47:38;10.00;92.60
19803;DHT22;66074;50.764;6.090;2024-03-02T06:50:04;10.00;92.60
19803;DHT22;66074;50.764;6.090;2024-03-02T06:52:29;10.00;92.70
19803;DHT22;66074;50.764;6.090;2024-03-02T06:54:55;10.00;92.70
19803;DHT22;66074;50.764;6.090;2024-03-02T06:57:21;10.00;92.80
19803;DHT22;66074;50.764;6.090;2024-03-02T06:59:46;10.00;92.70
19803;DHT22;66074;50.764;6.090;2024-03-02T07:02:15;10.00;92.70
19803;DHT22;66074;50.764;6.090;2024-03-02T07:04:41;9.90;93.10
19803;DHT22;66074;50.764;6.090;2024-03-02T07:07:06;9.80;93.10
19803;DHT22;66074;50.764;6.090;2024-03-02T07:09:32;9.80;93.20
19803;DHT22;66074;50.764;6.090;2024-03-02T07:11:57;9.70;93.20
19803;DHT22;66074;50.764;6.090;2024-03-02T07:14:23;9.70;93.30
19803;DHT22;66074;50.764;6.090;2024-03-02T07:17:08;9.80;93.30
19803;DHT22;66074;50.764;6.090;2024-03-02T07:19:35;9.70;93.30
19803;DHT22;66074;50.764;6.090;2024-03-02T07:22:01;9.70;93.40
19803;DHT22;66074;50.764;6.090;2024-03-02T07:24:31;9.70;93.30
19803;DHT22;66074;50.764;6.090;2024-03-02T07:26:56;9.70;93.30
19803;DHT22;66074;50.764;6.090;2024-03-02T07:29:22;9.70;93.30
19803;DHT22;66074;50.764;6.090;2024-03-02T07:31:47;9.70;93.20
19803;DHT22;66074;50.764;6.090;2024-03-02T07:34:13;9.70;93.30
19803;DHT22;66074;50.764;6.090;2024-03-02T07:36:39;9.60;93.20
19803;DHT22;66074;50.764;6.090;2024-03-02T07:39:04;9.70;93.20
19803;DHT22;66074;50.764;6.090;2024-03-02T07:41:30;9.70;93.20
19803;DHT22;66074;50.764;6.090;2024-03-02T07:43:56;9.70;93.20
19803;DHT22;66074;50.764;6.090;2024-03-02T07:46:22;9.70;93.10
19803;DHT22;66074;50.764;6.090;2024-03-02T07:48:47;9.70;93.20
19803;DHT22;66074;50.764;6.090;2024-03-02T07:51:13;9.70;93.20
19803;DHT22;66074;50.764;6.090;2024-03-02T07:53:39;9.70;93.20
19803;DHT22;66074;50.764;6.090;2024-03-02T07:56:05;9.70;93.20
19803;DHT22;66074;50.764;6.090;2024-03-02T07:58:31;9.70;93.20
19803;DHT22;66074;50.764;6.090;2024-03-02T08:00:59;9.60;93.20
19803;DHT22;66074;50.764;6.090;2024-03-02T08:03:26;9.70;93.20
19803;DHT22;66074;50.764;6.090;2024-03-02T08:05:52;9.70;93.20
19803;DHT22;66074;50.764;6.090;2024-03-02T08:08:18;9.70;93.20
19803;DHT22;66074;50.764;6.090;2024-03-02T08:10:44;9.70;93.20
19803;DHT22;66074;50.764;6.090;2024-03-02T08:13:09;9.70;93.10
19803;DHT22;66074;50.764;6.090;2024-03-02T08:15:35;9.80;93.10
19803;DHT22;66074;50.764;6.090;2024-03-02T08:18:00;9.80;93.20
19803;DHT22;66074;50.764;6.090;2024-03-02T08:20:26;9.80;93.10
19803;DHT22;66074;50.764;6.090;2024-03-02T08:22:52;9.80;93.00
19803;DHT22;66074;50.764;6.090;2024-03-02T08:25:20;9.80;93.00
19803;DHT22;66074;50.764;6.090;2024-03-02T08:27:46;9.80;93.00
19803;DHT22;66074;50.764;6.090;2024-03-02T08:30:12;9.80;93.00
19803;DHT22;66074;50.764;6.090;2024-03-02T08:32:38;9.80;92.90
19803;DHT22;66074;50.764;6.090;2024-03-02T08:35:04;9.80;92.80
19803;DHT22;66074;50.764;6.090;2024-03-02T08:37:30;9.80;92.70
19803;DHT22;66074;50.764;6.090;2024-03-02T08:39:56;9.80;92.80
19803;DHT22;66074;50.764;6.090;2024-03-02T08:42:22;9.80;92.90
19803;DHT22;66074;50.764;6.090;2024-03-02T08:44:48;9.90;92.90
19803;DHT22;66074;50.764;6.090;2024-03-02T08:47:13;9.90;92.90
19803;DHT22;66074;50.764;6.090;2024-03-02T08:49:39;9.90;92.90
19803;DHT22;66074;50.764;6.090;2024-03-02T08:52:05;9.90;92.90
19803;DHT22;66074;50.764;6.090;2024-03-02T08:54:31;10.00;92.30
19803;DHT22;66074;50.764;6.090;2024-03-02T08:56:57;10.00;92.10
19803;DHT22;66074;50.764;6.090;2024-03-02T08:59:23;10.10;92.40
19803;DHT22;66074;50.764;6.090;2024-03-02T09:01:50;10.10;92.20
19803;DHT22;66074;50.764;6.090;2024-03-02T09:04:16;10.10;92.10
19803;DHT22;66074;50.764;6.090;2024-03-02T09:06:42;10.20;92.10
19803;DHT22;66074;50.764;6.090;2024-03-02T09:09:07;10.20;92.10
19803;DHT22;66074;50.764;6.090;2024-03-02T09:11:33;10.20;91.90
19803;DHT22;66074;50.764;6.090;2024-03-02T09:13:59;10.30;91.90
19803;DHT22;66074;50.764;6.090;2024-03-02T09:16:25;10.30;92.30
19803;DHT22;66074;50.764;6.090;2024-03-02T09:18:56;10.30;91.80
19803;DHT22;66074;50.764;6.090;2024-03-02T09:21:21;10.30;91.80
19803;DHT22;66074;50.764;6.090;2024-03-02T09:23:48;10.40;91.70
19803;DHT22;66074;50.764;6.090;2024-03-02T09:26:14;10.40;91.90
19803;DHT22;66074;50.764;6.090;2024-03-02T09:28:48;10.40;92.20
19803;DHT22;66074;50.764;6.090;2024-03-02T09:31:14;10.50;91.90
19803;DHT22;66074;50.764;6.090;2024-03-02T09:33:39;10.50;92.00
19803;DHT22;66074;50.764;6.090;2024-03-02T09:36:05;10.60;91.90
19803;DHT22;66074;50.764;6.090;2024-03-02T09:38:34;10.60;91.70
19803;DHT22;66074;50.764;6.090;2024-03-02T09:41:00;10.60;91.70
19803;DHT22;66074;50.764;6.090;2024-03-02T09:43:26;10.60;91.80
19803;DHT22;66074;50.764;6.090;2024-03-02T09:45:52;10.70;91.50
19803;DHT22;66074;50.764;6.090;2024-03-02T09:48:18;10.70;91.40
19803;DHT22;66074;50.764;6.090;2024-03-02T09:50:46;10.70;91.30
19803;DHT22;66074;50.764;6.090;2024-03-02T09:53:12;10.70;91.20
19803;DHT22;66074;50.764;6.090;2024-03-02T09:55:38;10.70;91.00
19803;DHT22;66074;50.764;6.090;2024-03-02T09:58:08;10.70;90.90
19803;DHT22;66074;50.764;6.090;2024-03-02T10:00:33;10.70;91.10
19803;DHT22;66074;50.764;6.090;2024-03-02T10:02:59;10.70;91.20
19803;DHT22;66074;50.764;6.090;2024-03-02T10:05:26;10.80;91.20
19803;DHT22;66074;50.764;6.090;2024-03-02T10:08:02;10.80;91.40
19803;DHT22;66074;50.764;6.090;2024-03-02T10:10:38;10.90;91.20
19803;DHT22;66074;50.764;6.090;2024-03-02T10:13:09;10.90;91.10
19803;DHT22;66074;50.764;6.090;2024-03-02T10:15:36;11.00;91.00
19803;DHT22;66074;50.764;6.090;2024-03-02T10:18:12;11.00;91.10
19803;DHT22;66074;50.764;6.090;2024-03-02T10:20:39;11.00;90.90
19803;DHT22;66074;50.764;6.090;2024-03-02T10:23:14;11.10;91.10
19803;DHT22;66074;50.764;6.090;2024-03-02T10:25:41;11.10;90.90
19803;DHT22;66074;50.764;6.090;2024-03-02T10:28:06;11.10;91.00
19803;DHT22;66074;50.764;6.090;2024-03-02T10:30:34;11.10;90.90
19803;DHT22;66074;50.764;6.090;2024-03-02T10:33:01;11.20;91.00
19803;DHT22;66074;50.764;6.090;2024-03-02T10:35:27;11.30;91.00
19803;DHT22;66074;50.764;6.090;2024-03-02T10:37:53;11.30;90.80
19803;DHT22;66074;50.764;6.090;2024-03-02T10:40:22;11.30;90.80
19803;DHT22;66074;50.764;6.090;2024-03-02T10:42:49;11.30;90.70
19803;DHT22;66074;50.764;6.090;2024-03-02T10:45:16;11.30;90.60
19803;DHT22;66074;50.764;6.090;2024-03-02T10:47:43;11.40;90.70
19803;DHT22;66074;50.764;6.090;2024-03-02T10:50:09;11.40;90.70
19803;DHT22;66074;50.764;6.090;2024-03-02T10:52:35;11.50;91.00
19803;DHT22;66074;50.764;6.090;2024-03-02T10:55:01;11.50;91.10
19803;DHT22;66074;50.764;6.090;2024-03-02T10:57:42;11.60;91.00
19803;DHT22;66074;50.764;6.090;2024-03-02T11:00:12;11.70;90.80
19803;DHT22;66074;50.764;6.090;2024-03-02T11:02:50;11.80;90.60
19803;DHT22;66074;50.764;6.090;2024-03-02T11:05:23;12.00;90.60
19803;DHT22;66074;50.764;6.090;2024-03-02T11:07:56;12.10;90.50
19803;DHT22;66074;50.764;6.090;2024-03-02T11:10:23;12.20;90.60
19803;DHT22;66074;50.764;6.090;2024-03-02T11:13:02;12.20;90.40
19803;DHT22;66074;50.764;6.090;2024-03-02T11:15:27;12.10;90.10
19803;DHT22;66074;50.764;6.090;2024-03-02T11:17:54;12.10;90.30
19803;DHT22;66074;50.764;6.090;2024-03-02T11:20:20;12.10;90.60
19803;DHT22;66074;50.764;6.090;2024-03-02T11:22:46;12.10;90.40
19803;DHT22;66074;50.764;6.090;2024-03-02T11:25:28;12.10;90.40
19803;DHT22;66074;50.764;6.090;2024-03-02T11:32:57;12.50;90.30
19803;DHT22;66074;50.764;6.090;2024-03-02T11:35:25;12.50;90.70
19803;DHT22;66074;50.764;6.090;2024-03-02T11:37:52;12.50;90.40
19803;DHT22;66074;50.764;6.090;2024-03-02T11:40:27;12.60;90.60
19803;DHT22;66074;50.764;6.090;2024-03-02T11:42:53;12.70;90.30
19803;DHT22;66074;50.764;6.090;2024-03-02T11:45:23;12.90;90.30
19803;DHT22;66074;50.764;6.090;2024-03-02T11:47:54;12.90;90.60
19803;DHT22;66074;50.764;6.090;2024-03-02T11:50:35;12.90;90.00
19803;DHT22;66074;50.764;6.090;2024-03-02T11:53:05;12.90;90.00
19803;DHT22;66074;50.764;6.090;2024-03-02T11:55:37;12.90;90.20
19803;DHT22;66074;50.764;6.090;2024-03-02T11:58:04;12.90;90.00
19803;DHT22;66074;50.764;6.090;2024-03-02T12:00:29;12.90;90.10
19803;DHT22;66074;50.764;6.090;2024-03-02T12:03:09;13.00;90.00
19803;DHT22;66074;50.764;6.090;2024-03-02T12:05:35;12.90;89.40
19803;DHT22;66074;50.764;6.090;2024-03-02T12:08:03;13.10;90.00
19803;DHT22;66074;50.764;6.090;2024-03-02T12:10:29;13.20;90.50
19803;DHT22;66074;50.764;6.090;2024-03-02T12:12:59;13.40;90.10
19803;DHT22;66074;50.764;6.090;2024-03-02T12:15:29;13.50;89.70
19803;DHT22;66074;50.764;6.090;2024-03-02T12:18:00;13.70;90.00
19803;DHT22;66074;50.764;6.090;2024-03-02T12:20:28;13.70;89.50
19803;DHT22;66074;50.764;6.090;2024-03-02T12:22:55;14.00;89.30
19803;DHT22;66074;50.764;6.090;2024-03-02T12:25:22;14.00;89.60
19803;DHT22;66074;50.764;6.090;2024-03-02T12:27:50;14.10;90.10
19803;DHT22;66074;50.764;6.090;2024-03-02T12:30:17;14.10;89.60
19803;DHT22;66074;50.764;6.090;2024-03-02T12:32:44;14.10;89.70
19803;DHT22;66074;50.764;6.090;2024-03-02T12:35:11;14.20;89.70
19803;DHT22;66074;50.764;6.090;2024-03-02T12:37:48;14.10;89.20
19803;DHT22;66074;50.764;6.090;2024-03-02T12:40:15;14.00;89.70
19803;DHT22;66074;50.764;6.090;2024-03-02T12:42:43;14.10;90.10
19803;DHT22;66074;50.764;6.090;2024-03-02T12:45:09;14.00;89.20
19803;DHT22;66074;50.764;6.090;2024-03-02T12:47:35;14.00;89.10
19803;DHT22;66074;50.764;6.090;2024-03-02T12:50:01;14.00;89.40
19803;DHT22;66074;50.764;6.090;2024-03-02T12:52:27;14.00;89.20
19803;DHT22;66074;50.764;6.090;2024-03-02T12:54:53;14.00;89.00
19803;DHT22;66074;50.764;6.090;2024-03-02T12:57:28;14.10;89.30
19803;DHT22;66074;50.764;6.090;2024-03-02T13:00:05;14.10;89.80
19803;DHT22;66074;50.764;6.090;2024-03-02T13:02:36;14.20;89.30
19803;DHT22;66074;50.764;6.090;2024-03-02T13:05:02;14.20;88.80
19803;DHT22;66074;50.764;6.090;2024-03-02T13:07:29;14.20;88.90
19803;DHT22;66074;50.764;6.090;2024-03-02T13:09:55;14.10;88.30
19803;DHT22;66074;50.764;6.090;2024-03-02T13:12:22;14.20;89.30
19803;DHT22;66074;50.764;6.090;2024-03-02T13:14:53;14.30;89.50
19803;DHT22;66074;50.764;6.090;2024-03-02T13:17:19;14.30;88.90
19803;DHT22;66074;50.764;6.090;2024-03-02T13:19:59;14.30;88.60
19803;DHT22;66074;50.764;6.090;2024-03-02T13:22:25;14.40;89.00
19803;DHT22;66074;50.764;6.090;2024-03-02T13:24:51;14.40;89.20
19803;DHT22;66074;50.764;6.090;2024-03-02T13:27:17;14.60;89.40
19803;DHT22;66074;50.764;6.090;2024-03-02T13:29:47;14.80;89.50
19803;DHT22;66074;50.764;6.090;2024-03-02T13:32:16;15.40;88.50
19803;DHT22;66074;50.764;6.090;2024-03-02T13:34:42;15.40;87.80
19803;DHT22;66074;50.764;6.090;2024-03-02T13:37:08;15.40;87.50
19803;DHT22;66074;50.764;6.090;2024-03-02T13:39:34;15.20;87.80
19803;DHT22;66074;50.764;6.090;2024-03-02T13:42:07;15.10;88.60
19803;DHT22;66074;50.764;6.090;2024-03-02T13:44:33;15.20;88.90
19803;DHT22;66074;50.764;6.090;2024-03-02T13:47:00;15.30;88.40
19803;DHT22;66074;50.764;6.090;2024-03-02T13:49:26;15.20;88.20
19803;DHT22;66074;50.764;6.090;2024-03-02T13:52:08;15.10;88.80
19803;DHT22;66074;50.764;6.090;2024-03-02T13:54:42;15.30;88.10
19803;DHT22;66074;50.764;6.090;2024-03-02T13:57:09;16.30;87.70
19803;DHT22;66074;50.764;6.090;2024-03-02T13:59:35;17.70;87.00
19803;DHT22;66074;50.764;6.090;2024-03-02T14:02:05;18.40;85.30
19803;DHT22;66074;50.764;6.090;2024-03-02T14:04:32;18.50;85.70
19803;DHT22;66074;50.764;6.090;2024-03-02T14:06:58;18.80;84.30
19803;DHT22;66074;50.764;6.090;2024-03-02T14:09:24;19.30;84.90
19803;DHT22;66074;50.764;6.090;2024-03-02T14:11:50;19.70;85.20
19803;DHT22;66074;50.764;6.090;2024-03-02T14:14:17;19.30;83.30
19803;DHT22;66074;50.764;6.090;2024-03-02T14:16:43;19.00;85.90
19803;DHT22;66074;50.764;6.090;2024-03-02T14:19:09;18.90;86.40
19803;DHT22;66074;50.764;6.090;2024-03-02T14:21:35;18.40;84.90
19803;DHT22;66074;50.764;6.090;2024-03-02T14:24:01;18.10;84.40
19803;DHT22;66074;50.764;6.090;2024-03-02T14:26:27;18.00;87.50
19803;DHT22;66074;50.764;6.090;2024-03-02T14:28:54;17.90;86.50
19803;DHT22;66074;50.764;6.090;2024-03-02T14:31:19;17.80;87.20
19803;DHT22;66074;50.764;6.090;2024-03-02T14:33:46;17.60;87.00
19803;DHT22;66074;50.764;6.090;2024-03-02T14:36:12;17.60;87.80
19803;DHT22;66074;50.764;6.090;2024-03-02T14:38:38;17.70;87.30
19803;DHT22;66074;50.764;6.090;2024-03-02T14:41:04;17.50;86.00
19803;DHT22;66074;50.764;6.090;2024-03-02T14:43:30;17.30;85.60
19803;DHT22;66074;50.764;6.090;2024-03-02T14:45:56;17.00;85.80
19803;DHT22;66074;50.764;6.090;2024-03-02T14:48:22;17.00;85.90
19803;DHT22;66074;50.764;6.090;2024-03-02T14:50:48;16.90;85.30
19803;DHT22;66074;50.764;6.090;2024-03-02T14:53:14;16.70;85.70
19803;DHT22;66074;50.764;6.090;2024-03-02T14:55:39;16.50;85.20
19803;DHT22;66074;50.764;6.090;2024-03-02T14:58:05;16.30;85.40
19803;DHT22;66074;50.764;6.090;2024-03-02T15:00:30;16.10;85.50
19803;DHT22;66074;50.764;6.090;2024-03-02T15:02:56;15.90;85.20
19803;DHT22;66074;50.764;6.090;2024-03-02T15:05:22;15.80;85.20
19803;DHT22;66074;50.764;6.090;2024-03-02T15:07:48;15.70;85.60
19803;DHT22;66074;50.764;6.090;2024-03-02T15:10:13;15.50;85.20
19803;DHT22;66074;50.764;6.090;2024-03-02T15:12:39;15.40;85.10
19803;DHT22;66074;50.764;6.090;2024-03-02T15:15:05;15.30;85.50
19803;DHT22;66074;50.764;6.090;2024-03-02T15:17:30;15.30;85.50
19803;DHT22;66074;50.764;6.090;2024-03-02T15:19:56;15.20;85.00
19803;DHT22;66074;50.764;6.090;2024-03-02T15:22:22;15.10;85.60
19803;DHT22;66074;50.764;6.090;2024-03-02T15:24:47;15.00;85.30
19803;DHT22;66074;50.764;6.090;2024-03-02T15:27:13;15.00;85.40
19803;DHT22;66074;50.764;6.090;2024-03-02T15:29:39;15.00;85.30
19803;DHT22;66074;50.764;6.090;2024-03-02T15:32:05;14.90;85.40
19803;DHT22;66074;50.764;6.090;2024-03-02T15:34:32;14.80;85.40